Terminal Aerodrome Forecast
Issued by NWS Duluth, MN

Home | Current Version | Previous Version | Text Only | Print | Product List | Glossary On
Versions: 1 2 3 4 5 6 7 8 9 10 11 12 13 14 15
839
FTUS43 KDLH 141159
TAFDLH
TAF
KDLH 141159Z 1412/1512 15008KT P6SM SCT050 BKN090
     FM141700 16010KT P6SM BKN025 OVC050
     FM141900 16010KT 5SM -SN BKN015 OVC030
     FM142200 16012KT 2SM -SN OVC008
     FM150400 19011KT 3SM -SN OVC012
     FM150800 20009KT 5SM -SN OVC015=

USA.gov is the U.S. government's official web portal to all federal, state and local government web resources and services.